• Join FlightAware (Why Join?)
  • Login
  • US Flag 
05:12PM EDT


 

Airport Tracker/Info


-or-


 

Live Flight TrackerFlight Track Log ✈ N779NC ✈ 09-Jul-2013 ✈ KGSP - KATL

Flight Track Log - Related Links

Times and Time Zones

All times are in EDT time to prevent confusion due to time zone crossing. See the N779NC flight status page for this flight to view local times or setup timezone preferences in your user account.

Time Position Orientation Groundspeed Altitude Reporting Facility
EDT Latitude Longitude Course Direction KTS MPH feet Rate Location/Type
07:32PM 34.8511 -82.3403 259° West 210 242 4,400  Level Atlanta Center
07:33PM 34.8814 -82.4233 294° West 238 274 7,100 2,520 Climbing Atlanta Center
07:34PM 34.9283 -82.4983 307° West 246 283 9,500 2,100 Climbing Atlanta Center
07:35PM 35.0097 -82.5122 352° North 241 277 11,300 5,220 Climbing Atlanta Center
07:36PM 34.7889 -82.7337 259° West  Level FlightAware Approximate
07:36PM 35.0981 -82.5511 340° North 289 333 20,000  Level Atlanta Center
07:37PM 34.7744 -82.8205 259° West  Level FlightAware Approximate
07:37PM 35.1681 -82.6489 311° West 345 397 15,400  Level Atlanta Center
07:38PM 35.1586 -82.7633 264° West 322 371 17,800 1,980 Climbing Atlanta Center
07:39PM 35.0908 -82.8661 231° Southwest 323 372 19,400 1,080 Climbing Atlanta Center
07:40PM 34.9956 -82.9308 209° Southwest 336 387 20,000 300 Climbing Atlanta Center
07:41PM 34.8981 -83.0031 211° Southwest 366 421 20,000 -300 Level Atlanta Center
07:42PM 34.8319 -83.0925 228° Southwest 372 428 19,400 -1,380 Descending Atlanta Center
07:43PM 34.7639 -83.1767 225° Southwest 352 405 17,300 -1,800 Descending Atlanta Center
07:44PM 34.7039 -83.2606 229° Southwest 347 399 15,800 -1,200 Descending Atlanta Center
07:45PM 34.6439 -83.3369 226° Southwest 335 386 14,900 -780 Descending Atlanta Center
07:46PM 34.5733 -83.4131 222° Southwest 335 386 14,300 -540 Descending Atlanta Center
07:47PM 34.4858 -83.4742 210° Southwest 358 412 13,900 -420 Descending Atlanta Center
07:48PM 34.4153 -83.5403 218° Southwest 358 412 13,500 -420 Descending Atlanta Center
07:49PM 34.3403 -83.6136 219° Southwest 358 412 13,100 -540 Descending Atlanta Center
07:50PM 34.2675 -83.6844 219° Southwest 352 405 12,500 -600 Descending Atlanta Center
07:51PM 34.1989 -83.7550 220° Southwest 340 391 12,000 -240 Descending Atlanta Center
07:52PM 34.1217 -83.8131 212° Southwest 328 377 12,100  Climbing Atlanta Center
07:53PM 34.0572 -83.8783 220° Southwest 316 364 12,100 -660 Level Atlanta Center
07:53PM 34.0167 -83.9500 236° Southwest 293 337 11,000 -1,440 Descending Atlanta TRACON
07:54PM 33.9667 -84.0000 220° Southwest 279 321 9,700 -960 Descending Atlanta TRACON
07:55PM 33.9000 -83.9833 168° South 285 328 9,200 -300 Descending Atlanta TRACON
07:56PM 33.8167 -83.9667 171° South 297 342 9,100 -540 Descending Atlanta TRACON
07:57PM 33.7500 -83.9667 180° South 275 316 8,200 -1,200 Descending Atlanta TRACON
07:58PM 33.6667 -83.9833 189° South 268 308 6,800 -900 Descending Atlanta TRACON
08:00PM 33.6589 -84.1010 265° West  Level Estimated
08:02PM 33.6333 -84.2333 265° West 197 227 3,800  Level Atlanta TRACON
08:04PM 33.6333 -84.3500 270° West 145 167 2,000 -840 Descending Atlanta TRACON
08:05PM 33.6333 -84.4000 270° West 141 162 1,400 -660 Descending Atlanta TRACON
08:07PM 33.6333 -84.4167 239° Southwest  Level FlightAware Approximate
08:07PM 33.6367 -84.4279 265° West  Level Estimated
08:14PM 33.6367 -84.4279 239° Southwest  Level Estimated